Time;durP1;ratioP1;P1;durP2;ratioP2;P2;SDS_P1;SDS_P2;PMS_P1;PMS_P2;Temp;Humidity;BMP_temperature;BMP_pressure;BME280_temperature;BME280_humidity;BME280_pressure;Samples;Min_cycle;Max_cycle;Signal;HPM_P1;HPM_P2
2023/03/16 00:02:29;;;;;;;4.75;3.20;;;4.10;99.90;;;;;;7366009;19;20133;-68
2023/03/16 00:04:56;;;;;;;7.93;3.55;;;4.10;99.90;;;;;;7372124;19;20864;-68
2023/03/16 00:07:29;;;;;;;7.40;3.60;;;4.10;99.90;;;;;;7377996;19;20444;-68
2023/03/16 00:09:57;;;;;;;7.97;3.15;;;4.00;99.90;;;;;;7375788;19;20034;-68
2023/03/16 00:12:25;;;;;;;10.48;3.28;;;4.10;99.90;;;;;;7378734;19;20022;-68
2023/03/16 00:14:54;;;;;;;5.28;2.92;;;4.00;99.90;;;;;;7377002;19;20018;-68
2023/03/16 00:17:25;;;;;;;7.65;3.05;;;4.00;99.90;;;;;;7377154;19;20018;-68
2023/03/16 00:19:53;;;;;;;9.38;3.13;;;4.10;99.90;;;;;;7376645;19;20015;-68
2023/03/16 00:22:25;;;;;;;8.10;3.30;;;4.10;99.90;;;;;;7364151;19;20060;-67
2023/03/16 00:24:52;;;;;;;7.65;3.20;;;4.10;99.90;;;;;;7365153;19;20094;-68
2023/03/16 00:27:21;;;;;;;6.20;3.70;;;4.10;99.90;;;;;;7374362;19;20792;-68
2023/03/16 00:29:49;;;;;;;8.23;3.25;;;4.10;99.90;;;;;;7378888;19;20071;-68
2023/03/16 00:36:08;;;;;;;9.40;3.75;;;4.10;99.90;;;;;;7369846;19;20018;-68
2023/03/16 00:38:38;;;;;;;6.30;3.53;;;4.10;99.90;;;;;;7372291;19;20014;-68
2023/03/16 00:41:07;;;;;;;8.15;3.42;;;4.00;99.90;;;;;;7374492;19;21124;-68
2023/03/16 00:43:40;;;;;;;7.32;3.83;;;4.00;99.90;;;;;;7372323;19;20087;-66
2023/03/16 00:46:10;;;;;;;10.52;3.95;;;4.00;99.90;;;;;;7371037;19;20025;-67
2023/03/16 00:48:41;;;;;;;8.55;4.20;;;4.00;99.90;;;;;;7372434;19;20023;-67
2023/03/16 00:51:11;;;;;;;7.95;4.15;;;4.00;99.90;;;;;;7372258;19;20050;-67
2023/03/16 00:53:42;;;;;;;8.48;4.07;;;4.00;99.90;;;;;;7360403;19;20023;-67
2023/03/16 00:56:10;;;;;;;9.63;4.00;;;4.00;99.90;;;;;;7365406;19;20018;-67
2023/03/16 00:58:39;;;;;;;7.57;4.13;;;4.00;99.90;;;;;;7362518;19;20051;-67
2023/03/16 01:01:08;;;;;;;10.38;4.63;;;4.00;99.90;;;;;;7377742;19;20031;-67
2023/03/16 01:03:36;;;;;;;13.80;4.60;;;4.00;99.90;;;;;;7372306;19;20025;-66
2023/03/16 01:06:09;;;;;;;7.95;3.85;;;4.00;99.90;;;;;;7377415;19;20895;-66
2023/03/16 01:08:36;;;;;;;8.85;4.70;;;3.90;99.90;;;;;;7377384;19;20039;-66
2023/03/16 01:11:04;;;;;;;9.27;4.30;;;3.90;99.90;;;;;;7380522;19;20029;-66
2023/03/16 01:13:31;;;;;;;11.48;5.25;;;3.90;99.90;;;;;;7376853;19;20019;-66
2023/03/16 01:15:58;;;;;;;8.70;4.57;;;3.90;99.90;;;;;;7375689;19;20782;-67
2023/03/16 01:18:26;;;;;;;8.18;4.25;;;3.90;99.90;;;;;;7379657;19;20613;-67
2023/03/16 01:20:53;;;;;;;7.45;4.40;;;3.90;99.90;;;;;;7376594;19;20098;-67
2023/03/16 01:23:20;;;;;;;12.05;4.43;;;3.90;99.90;;;;;;7377541;19;20019;-67
2023/03/16 01:25:53;;;;;;;8.15;4.38;;;3.90;99.90;;;;;;7374651;19;20074;-67
2023/03/16 01:28:23;;;;;;;8.35;4.80;;;3.80;99.90;;;;;;7375043;19;20026;-67
2023/03/16 01:30:54;;;;;;;10.95;4.53;;;3.80;99.90;;;;;;7373489;19;20029;-67
2023/03/16 01:33:27;;;;;;;7.93;4.75;;;3.80;99.90;;;;;;7372976;19;20014;-67
2023/03/16 01:35:58;;;;;;;10.13;5.07;;;3.80;99.90;;;;;;7372419;19;20022;-66
2023/03/16 01:38:28;;;;;;;10.15;5.28;;;3.70;99.90;;;;;;7374861;19;20014;-66
2023/03/16 01:40:54;;;;;;;10.25;4.57;;;3.70;99.90;;;;;;7375802;19;20512;-65
2023/03/16 01:43:25;;;;;;;10.18;4.85;;;3.60;99.90;;;;;;7376971;19;20025;-65
2023/03/16 01:46:05;;;;;;;8.65;5.20;;;3.60;99.90;;;;;;7374325;19;20022;-66
2023/03/16 01:48:58;;;;;;;11.32;4.35;;;3.60;99.90;;;;;;7373130;19;20029;-65
2023/03/16 01:52:01;;;;;;;8.02;4.55;;;3.60;99.90;;;;;;7375789;19;20011;-66
2023/03/16 01:54:37;;;;;;;9.48;4.93;;;3.60;99.90;;;;;;7368790;19;20022;-66
2023/03/16 01:57:13;;;;;;;10.40;4.38;;;3.50;99.90;;;;;;7374324;19;20363;-66
2023/03/16 01:59:47;;;;;;;9.05;4.40;;;3.50;99.90;;;;;;7371923;19;20040;-67
2023/03/16 02:02:21;;;;;;;7.88;4.63;;;3.50;99.90;;;;;;7368391;19;20022;-67
2023/03/16 02:05:12;;;;;;;8.73;5.05;;;3.50;99.90;;;;;;7370915;19;20022;-67
2023/03/16 02:07:50;;;;;;;7.30;4.50;;;3.50;99.90;;;;;;7368358;19;20018;-68
2023/03/16 02:10:19;;;;;;;9.73;5.47;;;3.50;99.90;;;;;;7370117;19;20018;-67
2023/03/16 02:12:46;;;;;;;10.18;4.95;;;3.50;99.90;;;;;;7371923;19;20019;-67
2023/03/16 02:15:13;;;;;;;9.43;4.85;;;3.50;99.90;;;;;;7373889;19;20010;-67
2023/03/16 02:17:42;;;;;;;10.43;4.80;;;3.60;99.90;;;;;;7371729;19;20662;-67
2023/03/16 02:20:34;;;;;;;9.98;4.75;;;3.60;99.90;;;;;;7376616;19;20014;-67
2023/03/16 02:23:06;;;;;;;7.47;4.05;;;3.60;99.90;;;;;;7375827;19;20016;-67
2023/03/16 02:26:18;;;;;;;10.43;5.25;;;3.60;99.90;;;;;;7368948;19;20029;-67
2023/03/16 02:28:58;;;;;;;8.48;4.30;;;3.70;99.90;;;;;;7356812;19;20026;-67
2023/03/16 02:31:26;;;;;;;7.07;4.47;;;3.70;99.90;;;;;;7370189;19;20018;-67
2023/03/16 02:33:56;;;;;;;8.27;4.65;;;3.70;99.90;;;;;;7374815;19;20454;-67
2023/03/16 02:36:26;;;;;;;9.85;4.55;;;3.80;99.90;;;;;;7364983;19;20470;-67
2023/03/16 02:38:52;;;;;;;7.75;4.55;;;3.80;99.90;;;;;;7369958;19;20025;-67
2023/03/16 02:41:21;;;;;;;8.93;4.88;;;3.80;99.90;;;;;;7363940;19;20027;-67
2023/03/16 02:44:23;;;;;;;7.25;4.40;;;3.80;99.90;;;;;;7373250;19;20022;-67
2023/03/16 02:46:54;;;;;;;6.00;4.28;;;3.90;99.90;;;;;;7375085;19;20057;-67
2023/03/16 02:49:33;;;;;;;7.90;4.38;;;3.80;99.90;;;;;;7374497;19;20014;-67
2023/03/16 02:52:10;;;;;;;8.02;4.47;;;3.90;99.90;;;;;;7377691;19;20014;-67
2023/03/16 02:54:40;;;;;;;8.20;4.20;;;3.90;99.90;;;;;;7379962;19;20019;-67
2023/03/16 02:57:09;;;;;;;8.15;4.43;;;3.90;99.90;;;;;;7375734;19;20580;-67
2023/03/16 02:59:35;;;;;;;7.50;4.18;;;4.00;99.90;;;;;;7375760;19;20019;-67
2023/03/16 03:02:06;;;;;;;7.85;4.57;;;4.00;99.90;;;;;;7372416;19;20022;-67
2023/03/16 03:04:33;;;;;;;9.35;4.65;;;4.00;99.90;;;;;;7376455;19;20819;-68
2023/03/16 03:07:03;;;;;;;5.88;3.80;;;4.10;99.90;;;;;;7363438;19;20014;-66
2023/03/16 03:09:52;;;;;;;9.73;4.38;;;4.10;99.90;;;;;;7359176;19;21989;-68
2023/03/16 03:12:18;;;;;;;8.60;4.38;;;4.10;99.90;;;;;;7366429;19;20651;-66
2023/03/16 03:14:45;;;;;;;6.70;4.22;;;4.10;99.90;;;;;;7377891;19;20022;-67
2023/03/16 03:17:14;;;;;;;7.57;3.60;;;4.20;99.90;;;;;;7374690;19;20026;-67
2023/03/16 03:19:41;;;;;;;7.50;4.18;;;4.20;99.90;;;;;;7371255;19;20018;-67
2023/03/16 03:22:07;;;;;;;8.30;4.30;;;4.20;99.90;;;;;;7374049;19;20039;-68
2023/03/16 03:24:34;;;;;;;7.88;3.88;;;4.20;99.90;;;;;;7378016;19;20089;-67
2023/03/16 03:27:04;;;;;;;7.70;3.85;;;4.20;99.90;;;;;;7374366;19;20549;-68
2023/03/16 03:29:35;;;;;;;9.23;3.92;;;4.20;99.90;;;;;;7377985;19;20033;-68
2023/03/16 03:32:03;;;;;;;7.47;4.47;;;4.20;99.90;;;;;;7374283;19;20019;-67
2023/03/16 03:34:31;;;;;;;6.65;4.35;;;4.20;99.90;;;;;;7377760;19;20592;-67
2023/03/16 03:36:58;;;;;;;8.75;3.90;;;4.30;99.90;;;;;;7374922;19;20052;-66
2023/03/16 03:39:26;;;;;;;7.15;4.72;;;4.20;99.90;;;;;;7359727;19;20022;-66
2023/03/16 03:41:53;;;;;;;8.02;4.10;;;4.30;99.90;;;;;;7361752;19;20946;-66
2023/03/16 03:44:25;;;;;;;8.48;4.68;;;4.30;99.90;;;;;;7362013;19;20041;-66
2023/03/16 03:46:53;;;;;;;;;;;4.30;99.90;;;;;;7373984;19;20545;-67
2023/03/16 03:49:19;;;;;;;6.15;3.75;;;4.30;99.90;;;;;;7376721;19;20031;-66
2023/03/16 03:51:48;;;;;;;9.55;4.25;;;4.30;99.90;;;;;;7373725;19;20494;-66
2023/03/16 03:54:17;;;;;;;8.50;4.28;;;4.30;99.90;;;;;;7375563;19;20041;-66
2023/03/16 03:56:57;;;;;;;7.40;4.47;;;4.30;99.90;;;;;;7372469;19;20577;-66
2023/03/16 03:59:24;;;;;;;6.28;3.75;;;4.30;99.90;;;;;;7378299;19;20034;-66
2023/03/16 04:01:56;;;;;;;8.45;4.25;;;4.30;99.90;;;;;;7371691;19;20018;-66
2023/03/16 04:04:27;;;;;;;8.07;4.05;;;4.30;99.90;;;;;;7376386;19;20019;-66
2023/03/16 04:06:54;;;;;;;8.30;4.07;;;4.30;99.90;;;;;;7374274;19;20486;-66
2023/03/16 04:09:22;;;;;;;8.73;4.30;;;4.30;99.90;;;;;;7376553;19;20021;-67
2023/03/16 04:11:49;;;;;;;7.13;4.68;;;4.30;99.90;;;;;;7358440;19;20023;-67
2023/03/16 04:14:16;;;;;;;7.38;4.40;;;4.30;99.90;;;;;;7362297;19;20014;-66
2023/03/16 04:16:43;;;;;;;9.20;4.47;;;4.30;99.90;;;;;;7360630;19;20031;-67
2023/03/16 04:19:12;;;;;;;7.18;4.35;;;4.30;99.90;;;;;;7375448;19;20022;-66
2023/03/16 04:21:38;;;;;;;7.78;4.50;;;4.30;99.90;;;;;;7372891;19;20022;-67
2023/03/16 04:24:05;;;;;;;12.48;4.95;;;4.30;99.90;;;;;;7375292;19;20034;-66
2023/03/16 04:26:37;;;;;;;8.23;4.25;;;4.30;99.90;;;;;;7371889;19;20018;-67
2023/03/16 04:29:04;;;;;;;7.00;4.38;;;4.20;99.90;;;;;;7374984;19;20019;-66
2023/03/16 04:31:32;;;;;;;8.27;4.15;;;4.20;99.90;;;;;;7374463;19;20027;-68
2023/03/16 04:33:58;;;;;;;6.15;4.25;;;4.20;99.90;;;;;;7375261;19;20035;-67
2023/03/16 04:36:25;;;;;;;7.15;4.40;;;4.20;99.90;;;;;;7370629;19;20015;-67
2023/03/16 04:38:53;;;;;;;7.22;4.80;;;4.20;99.90;;;;;;7374868;19;20056;-66
2023/03/16 04:41:20;;;;;;;10.27;4.80;;;4.20;99.90;;;;;;7374615;19;20026;-67
2023/03/16 04:43:56;;;;;;;9.25;4.90;;;4.20;99.90;;;;;;7362113;19;20018;-67
2023/03/16 04:46:25;;;;;;;10.50;4.70;;;4.20;99.90;;;;;;7358593;19;20018;-66
2023/03/16 04:48:57;;;;;;;7.75;4.85;;;4.30;99.90;;;;;;7366878;19;20481;-67
2023/03/16 04:51:28;;;;;;;8.68;5.22;;;4.30;99.90;;;;;;7372100;19;20041;-68
2023/03/16 04:54:17;;;;;;;7.00;4.80;;;4.30;99.90;;;;;;7375570;19;20025;-67
2023/03/16 04:56:44;;;;;;;8.35;4.60;;;4.20;99.90;;;;;;7370759;19;20073;-67
2023/03/16 04:59:30;;;;;;;7.53;4.70;;;4.30;99.90;;;;;;7375433;19;20486;-68
2023/03/16 05:02:07;;;;;;;8.13;4.82;;;4.30;99.90;;;;;;7373453;19;20045;-68
2023/03/16 05:04:33;;;;;;;6.47;4.68;;;4.30;99.90;;;;;;7373980;19;20520;-67
2023/03/16 05:07:00;;;;;;;7.80;4.82;;;4.30;99.90;;;;;;7373158;19;20566;-68
2023/03/16 05:09:32;;;;;;;8.45;4.10;;;4.30;99.90;;;;;;7373370;19;20030;-67
2023/03/16 05:11:58;;;;;;;7.43;4.18;;;4.30;99.90;;;;;;7372694;19;20105;-68
2023/03/16 05:14:25;;;;;;;8.00;4.95;;;4.30;99.90;;;;;;7372350;19;20018;-68
2023/03/16 05:17:04;;;;;;;8.93;4.97;;;4.30;99.90;;;;;;7366063;19;20781;-68
2023/03/16 05:19:31;;;;;;;10.70;4.82;;;4.30;99.90;;;;;;7370020;19;20026;-68
2023/03/16 05:21:58;;;;;;;7.50;4.85;;;4.30;99.90;;;;;;7367643;19;20017;-68
2023/03/16 05:24:26;;;;;;;7.43;5.05;;;4.30;99.90;;;;;;7363688;19;20090;-67
2023/03/16 05:26:53;;;;;;;7.70;4.30;;;4.30;99.90;;;;;;7362864;19;20383;-68
2023/03/16 05:29:28;;;;;;;9.15;4.63;;;4.30;99.90;;;;;;7366391;19;20587;-68
2023/03/16 05:31:54;;;;;;;5.82;4.68;;;4.40;99.90;;;;;;7368933;19;20018;-66
2023/03/16 05:34:23;;;;;;;8.55;5.20;;;4.30;99.90;;;;;;7371318;19;20023;-66
2023/03/16 05:36:51;;;;;;;8.98;4.97;;;4.30;99.90;;;;;;7366740;19;20017;-67
2023/03/16 05:39:23;;;;;;;8.95;5.10;;;4.40;99.90;;;;;;7366784;19;20018;-67
2023/03/16 05:41:53;;;;;;;8.20;4.97;;;4.30;99.90;;;;;;7368985;19;20506;-67
2023/03/16 05:44:29;;;;;;;9.20;5.22;;;4.30;99.90;;;;;;7368553;19;20022;-66
2023/03/16 05:47:14;;;;;;;7.28;5.47;;;4.30;99.90;;;;;;7368875;19;20495;-66
2023/03/16 05:49:45;;;;;;;7.85;4.38;;;4.30;99.90;;;;;;7363217;19;20274;-67
2023/03/16 05:52:24;;;;;;;6.55;4.70;;;4.30;99.90;;;;;;7369242;19;20015;-67
2023/03/16 05:54:53;;;;;;;9.85;5.28;;;4.30;99.90;;;;;;7366777;19;20584;-68
2023/03/16 05:57:19;;;;;;;8.40;4.88;;;4.40;99.90;;;;;;7372518;19;20071;-67
2023/03/16 05:59:49;;;;;;;6.28;4.10;;;4.40;99.90;;;;;;7362724;19;20021;-66
2023/03/16 06:02:16;;;;;;;9.45;4.93;;;4.30;99.90;;;;;;7371074;19;20030;-67
2023/03/16 06:04:42;;;;;;;8.77;5.00;;;4.40;99.90;;;;;;7369643;19;20026;-67
2023/03/16 06:07:09;;;;;;;6.82;4.60;;;4.40;99.90;;;;;;7371618;19;20022;-67
2023/03/16 06:09:38;;;;;;;7.80;5.03;;;4.30;99.90;;;;;;7371231;19;20025;-67
2023/03/16 06:12:16;;;;;;;7.78;4.28;;;4.30;99.90;;;;;;7368291;19;20022;-67
2023/03/16 06:14:43;;;;;;;8.80;5.15;;;4.30;99.90;;;;;;7363813;19;20038;-67
2023/03/16 06:17:12;;;;;;;7.93;4.90;;;4.30;99.90;;;;;;7367873;19;20018;-67
2023/03/16 06:19:41;;;;;;;10.55;5.28;;;4.30;99.90;;;;;;7370882;19;20049;-67
2023/03/16 06:22:07;;;;;;;8.93;5.35;;;4.30;99.90;;;;;;7372190;19;20018;-68
2023/03/16 06:24:33;;;;;;;7.72;4.63;;;4.30;99.90;;;;;;7370565;19;20026;-67
2023/03/16 06:27:00;;;;;;;8.43;5.03;;;4.40;99.90;;;;;;7371474;19;20410;-68
2023/03/16 06:29:32;;;;;;;7.63;4.50;;;4.40;99.90;;;;;;7368507;19;20018;-67
2023/03/16 06:32:00;;;;;;;7.63;4.57;;;4.40;99.90;;;;;;7361748;19;20034;-66
2023/03/16 06:34:27;;;;;;;7.22;4.40;;;4.50;99.90;;;;;;7358782;19;20041;-68
2023/03/16 06:36:58;;;;;;;7.38;4.68;;;4.50;99.90;;;;;;7354153;19;20018;-67
2023/03/16 06:39:25;;;;;;;7.68;4.53;;;4.50;99.90;;;;;;7361369;19;20082;-68
2023/03/16 06:41:54;;;;;;;7.63;4.35;;;4.50;99.90;;;;;;7368627;19;20015;-67
2023/03/16 06:44:24;;;;;;;7.65;4.35;;;4.60;99.90;;;;;;7369695;19;20039;-67
2023/03/16 06:47:12;;;;;;;9.55;4.68;;;4.60;99.90;;;;;;7368661;19;20019;-67
2023/03/16 06:49:38;;;;;;;9.10;4.65;;;4.60;99.90;;;;;;7368957;19;20961;-67
2023/03/16 06:52:13;;;;;;;5.90;4.65;;;4.60;99.90;;;;;;7364227;19;20014;-67
2023/03/16 06:54:40;;;;;;;6.63;4.30;;;4.70;99.90;;;;;;7361296;19;20021;-67
2023/03/16 06:57:08;;;;;;;6.43;4.72;;;4.70;99.90;;;;;;7362697;19;20011;-68
2023/03/16 06:59:34;;;;;;;6.97;4.53;;;4.80;99.90;;;;;;7363508;19;20096;-67
2023/03/16 07:02:01;;;;;;;7.95;4.53;;;4.80;99.90;;;;;;7362832;19;20499;-67
2023/03/16 07:04:28;;;;;;;8.40;4.68;;;4.80;99.90;;;;;;7361633;19;20042;-67
2023/03/16 07:06:54;;;;;;;8.55;4.38;;;4.90;99.90;;;;;;7361438;19;20533;-67
2023/03/16 07:09:21;;;;;;;6.22;4.22;;;4.90;99.90;;;;;;7365556;19;20018;-67
2023/03/16 07:11:47;;;;;;;7.70;4.43;;;4.90;99.90;;;;;;7362435;19;20019;-67
2023/03/16 07:14:14;;;;;;;6.78;4.05;;;4.90;99.90;;;;;;7368839;19;20022;-67
2023/03/16 07:16:42;;;;;;;7.45;4.82;;;4.90;99.90;;;;;;7365459;19;20047;-67
2023/03/16 07:19:10;;;;;;;6.03;2.92;;;4.90;99.90;;;;;;7368554;19;20781;-67
2023/03/16 07:21:40;;;;;;;6.90;4.47;;;5.00;99.90;;;;;;7375010;19;20018;-67
2023/03/16 07:24:14;;;;;;;7.85;4.18;;;5.00;99.90;;;;;;7379222;19;20840;-67
2023/03/16 07:26:41;;;;;;;7.90;4.72;;;5.00;99.90;;;;;;7377431;19;20706;-67
2023/03/16 07:29:08;;;;;;;6.82;3.70;;;5.10;99.90;;;;;;7375412;19;20018;-67
2023/03/16 07:31:39;;;;;;;7.47;3.92;;;5.10;99.90;;;;;;7372578;19;20030;-67
2023/03/16 07:34:11;;;;;;;6.57;4.50;;;5.10;99.90;;;;;;7376643;19;20858;-67
2023/03/16 07:36:43;;;;;;;8.02;4.28;;;5.10;99.90;;;;;;7371859;19;20028;-66
2023/03/16 07:39:13;;;;;;;8.70;5.03;;;5.10;99.90;;;;;;7372806;19;20007;-66
2023/03/16 07:41:40;;;;;;;8.05;4.82;;;5.10;99.90;;;;;;7372201;19;20094;-67
2023/03/16 07:44:18;;;;;;;6.22;4.22;;;5.20;99.90;;;;;;7375962;19;20094;-67
2023/03/16 07:46:47;;;;;;;6.40;4.35;;;5.20;99.90;;;;;;7375474;19;20640;-67
2023/03/16 07:49:15;;;;;;;6.00;4.05;;;5.20;99.90;;;;;;7376603;19;20019;-68
2023/03/16 07:51:42;;;;;;;7.57;4.55;;;5.30;99.90;;;;;;7370157;19;20060;-67
2023/03/16 07:54:09;;;;;;;7.45;4.20;;;5.30;99.90;;;;;;7377969;19;20014;-67
2023/03/16 07:56:36;;;;;;;6.72;4.30;;;5.30;99.90;;;;;;7372776;19;20512;-67
2023/03/16 07:59:03;;;;;;;7.75;4.82;;;5.30;99.90;;;;;;7371416;19;20052;-67
2023/03/16 08:01:34;;;;;;;7.07;4.15;;;5.30;99.90;;;;;;7373217;19;20491;-67
2023/03/16 08:04:01;;;;;;;8.45;4.63;;;5.40;99.90;;;;;;7370024;19;20040;-68
2023/03/16 08:06:27;;;;;;;6.10;4.30;;;5.40;99.90;;;;;;7370035;19;20470;-68
2023/03/16 08:08:59;;;;;;;6.63;4.78;;;5.40;99.90;;;;;;7371235;19;20026;-68
2023/03/16 08:11:33;;;;;;;8.32;4.80;;;5.50;99.90;;;;;;7374507;19;20014;-67
2023/03/16 08:14:03;;;;;;;8.02;4.45;;;5.40;99.90;;;;;;7374373;19;20007;-67
2023/03/16 08:16:53;;;;;;;7.55;4.88;;;5.40;99.90;;;;;;7374675;19;20037;-67
2023/03/16 08:19:21;;;;;;;6.55;4.55;;;5.40;99.90;;;;;;7375230;19;20022;-66
2023/03/16 08:21:51;;;;;;;6.93;4.82;;;5.40;99.90;;;;;;7373159;19;20054;-67
2023/03/16 08:24:18;;;;;;;9.70;5.13;;;5.40;99.90;;;;;;7375429;19;20018;-68
2023/03/16 08:26:46;;;;;;;8.38;5.28;;;5.40;99.90;;;;;;7375463;19;20030;-67
2023/03/16 08:29:13;;;;;;;6.78;5.57;;;5.40;99.90;;;;;;7376461;19;20018;-67
2023/03/16 08:31:41;;;;;;;10.00;5.40;;;5.30;99.90;;;;;;7371234;19;20025;-68
2023/03/16 08:34:12;;;;;;;9.70;5.60;;;5.30;99.90;;;;;;7376461;19;20018;-67
2023/03/16 08:36:43;;;;;;;8.55;5.38;;;5.30;99.90;;;;;;7373572;19;20482;-68
2023/03/16 08:39:11;;;;;;;9.07;5.50;;;5.20;99.90;;;;;;7371851;19;20773;-68
2023/03/16 08:41:42;;;;;;;9.32;5.55;;;5.20;99.90;;;;;;7370854;19;20023;-68
2023/03/16 08:44:20;;;;;;;9.65;5.75;;;5.20;99.90;;;;;;7369817;19;20074;-68
2023/03/16 08:46:46;;;;;;;9.50;5.28;;;5.20;99.90;;;;;;7373975;19;20018;-68
2023/03/16 08:49:13;;;;;;;8.00;5.82;;;5.20;99.90;;;;;;7375151;19;20615;-67
2023/03/16 08:51:46;;;;;;;9.48;5.82;;;5.10;99.90;;;;;;7372296;19;20484;-69
2023/03/16 08:54:14;;;;;;;7.82;5.68;;;5.20;99.90;;;;;;7377864;19;20018;-66
2023/03/16 08:56:40;;;;;;;7.90;5.40;;;5.20;99.90;;;;;;7373810;19;20051;-67
2023/03/16 08:59:07;;;;;;;9.05;5.70;;;5.20;99.90;;;;;;7377023;19;20105;-66
2023/03/16 09:01:34;;;;;;;10.77;6.70;;;5.20;99.90;;;;;;7376734;19;20022;-67
2023/03/16 09:04:02;;;;;;;9.30;5.40;;;5.20;99.90;;;;;;7374441;19;20042;-66
2023/03/16 09:06:29;;;;;;;12.23;6.05;;;5.30;99.90;;;;;;7372355;19;20474;-67
2023/03/16 09:08:58;;;;;;;8.68;6.30;;;5.30;99.90;;;;;;7372253;19;20026;-66
2023/03/16 09:11:29;;;;;;;11.30;6.40;;;5.20;99.90;;;;;;7367787;19;20022;-66
2023/03/16 09:13:57;;;;;;;8.80;5.65;;;5.20;99.90;;;;;;7375590;19;20031;-66
2023/03/16 09:16:24;;;;;;;8.82;6.20;;;5.30;99.90;;;;;;7374056;19;20018;-66
2023/03/16 09:18:52;;;;;;;9.75;6.43;;;5.20;99.90;;;;;;7366577;19;20014;-67
2023/03/16 09:21:19;;;;;;;11.55;5.97;;;5.20;99.90;;;;;;7371359;19;20020;-66
2023/03/16 09:23:45;;;;;;;10.38;6.63;;;5.30;99.90;;;;;;7368760;19;20038;-67
2023/03/16 09:26:12;;;;;;;11.32;6.72;;;5.30;99.90;;;;;;7369363;19;20600;-67
2023/03/16 09:28:40;;;;;;;10.00;6.25;;;5.30;99.90;;;;;;7365160;19;20010;-67
2023/03/16 09:31:14;;;;;;;12.07;6.10;;;5.30;99.90;;;;;;7369920;19;20029;-67
2023/03/16 09:33:40;;;;;;;9.25;6.35;;;5.40;99.90;;;;;;7366250;19;20018;-66
2023/03/16 09:36:10;;;;;;;10.25;6.15;;;5.50;99.90;;;;;;7368518;19;20018;-66
2023/03/16 09:38:37;;;;;;;9.25;6.63;;;5.50;99.90;;;;;;7363623;19;20019;-68
2023/03/16 09:41:10;;;;;;;9.68;6.35;;;5.60;99.90;;;;;;7371551;19;20612;-67
2023/03/16 09:44:06;;;;;;;10.07;6.60;;;5.60;99.90;;;;;;7368008;19;20694;-66
2023/03/16 09:46:42;;;;;;;11.63;7.28;;;5.70;99.90;;;;;;7370211;19;20021;-66
2023/03/16 09:49:11;;;;;;;8.60;5.90;;;5.80;99.90;;;;;;7371272;19;20021;-66
2023/03/16 09:51:49;;;;;;;13.82;6.85;;;5.80;99.90;;;;;;7366905;19;20039;-66
2023/03/16 09:54:38;;;;;;;10.88;6.85;;;5.80;99.90;;;;;;7369609;19;20022;-66
2023/03/16 09:57:18;;;;;;;9.52;6.72;;;5.90;99.90;;;;;;7370286;19;20075;-66
2023/03/16 09:59:46;;;;;;;14.65;7.25;;;5.90;99.90;;;;;;7370285;19;20596;-66
2023/03/16 10:02:21;;;;;;;10.82;6.30;;;5.90;99.90;;;;;;7368723;19;20086;-67
2023/03/16 10:05:06;;;;;;;11.05;6.85;;;5.90;99.90;;;;;;7354130;19;20478;-67
2023/03/16 10:07:47;;;;;;;13.93;6.93;;;5.90;99.90;;;;;;7362550;19;20474;-65
2023/03/16 10:10:38;;;;;;;10.20;6.43;;;5.90;99.90;;;;;;7371935;19;21091;-66
2023/03/16 10:13:49;;;;;;;11.02;7.38;;;6.00;99.90;;;;;;7371088;19;20043;-66
2023/03/16 10:16:24;;;;;;;13.90;7.72;;;6.00;99.90;;;;;;7369459;19;20679;-65
2023/03/16 10:19:00;;;;;;;11.50;7.63;;;6.00;99.90;;;;;;7368843;19;20398;-66
2023/03/16 10:21:32;;;;;;;11.13;7.22;;;6.00;99.90;;;;;;7376220;19;20018;-66
2023/03/16 10:24:01;;;;;;;11.20;7.10;;;6.00;99.90;;;;;;7371111;19;20026;-66
2023/03/16 10:26:36;;;;;;;9.10;7.13;;;6.10;99.90;;;;;;7375954;19;20011;-66
2023/03/16 10:29:11;;;;;;;13.05;7.40;;;6.10;99.90;;;;;;7372818;19;20363;-67
2023/03/16 10:31:41;;;;;;;7.45;4.40;;;6.20;99.90;;;;;;7374054;19;20038;-66
2023/03/16 10:34:09;;;;;;;9.60;6.20;;;6.20;99.90;;;;;;7371642;19;20509;-66
2023/03/16 10:36:40;;;;;;;8.82;6.68;;;6.30;99.90;;;;;;7363305;19;20029;-66
2023/03/16 10:39:12;;;;;;;9.60;6.18;;;6.40;99.90;;;;;;7360570;19;20056;-66
2023/03/16 10:41:44;;;;;;;9.57;6.82;;;6.40;99.90;;;;;;7372507;19;20090;-66
2023/03/16 10:44:20;;;;;;;9.57;5.75;;;6.40;99.90;;;;;;7370569;19;20153;-66
2023/03/16 10:46:49;;;;;;;10.10;6.20;;;6.50;99.90;;;;;;7375611;19;20014;-66
2023/03/16 10:49:26;;;;;;;10.38;6.40;;;6.50;99.90;;;;;;7371703;19;20699;-66
2023/03/16 10:51:58;;;;;;;10.57;7.28;;;6.50;99.90;;;;;;7368840;19;20701;-66
2023/03/16 10:54:34;;;;;;;14.85;6.88;;;6.60;99.90;;;;;;7374039;19;20643;-66
2023/03/16 10:57:32;;;;;;;10.13;6.85;;;6.60;99.90;;;;;;7376226;19;20023;-66
2023/03/16 11:00:20;;;;;;;10.50;6.63;;;6.70;99.90;;;;;;7377741;19;20018;-67
2023/03/16 11:02:49;;;;;;;7.35;5.22;;;6.70;99.90;;;;;;7368232;19;20017;-67
2023/03/16 11:05:18;;;;;;;9.35;6.05;;;6.80;99.90;;;;;;7363467;19;20038;-67
2023/03/16 11:07:57;;;;;;;10.15;5.88;;;6.90;99.90;;;;;;7379934;19;20026;-67
2023/03/16 11:10:29;;;;;;;7.30;6.10;;;6.80;99.90;;;;;;7378236;19;20022;-67
2023/03/16 11:13:07;;;;;;;10.52;6.35;;;6.70;99.90;;;;;;7378104;19;20635;-67
2023/03/16 11:15:56;;;;;;;9.40;4.78;;;6.70;99.90;;;;;;7377914;19;20117;-67
2023/03/16 11:18:37;;;;;;;10.05;6.22;;;6.70;99.90;;;;;;7375180;19;20021;-67
2023/03/16 11:21:33;;;;;;;11.07;6.87;;;6.70;99.90;;;;;;7377905;19;20397;-67
2023/03/16 11:24:03;;;;;;;8.45;4.93;;;6.70;99.90;;;;;;7376898;19;20644;-66
2023/03/16 11:26:39;;;;;;;12.25;6.40;;;6.80;99.90;;;;;;7364336;19;20023;-67
2023/03/16 11:29:17;;;;;;;9.25;5.85;;;6.80;99.90;;;;;;7368380;19;20486;-67
2023/03/16 11:32:00;;;;;;;7.43;5.40;;;6.90;99.90;;;;;;7367223;19;20035;-66
2023/03/16 11:34:29;;;;;;;10.77;5.72;;;6.90;99.90;;;;;;7377553;19;20111;-68
2023/03/16 11:37:07;;;;;;;;;;;7.00;99.90;;;;;;7375838;19;20380;-67
2023/03/16 11:39:55;;;;;;;7.63;5.20;;;7.00;99.90;;;;;;7372979;19;19935;-67
2023/03/16 11:42:45;;;;;;;8.85;5.55;;;7.10;99.90;;;;;;7376108;19;20381;-67
2023/03/16 11:45:29;;;;;;;8.32;5.18;;;7.20;99.90;;;;;;7379021;19;20014;-67
2023/03/16 11:47:58;;;;;;;9.48;5.15;;;7.30;99.90;;;;;;7377499;19;20022;-67
2023/03/16 11:50:48;;;;;;;9.13;4.53;;;7.40;99.90;;;;;;7377753;19;20015;-67
2023/03/16 11:53:27;;;;;;;6.22;4.35;;;7.40;99.90;;;;;;7377511;19;20082;-67
2023/03/16 11:56:16;;;;;;;7.38;4.50;;;7.50;99.90;;;;;;7376977;19;20018;-67
2023/03/16 11:59:04;;;;;;;9.77;4.72;;;7.60;99.90;;;;;;7380001;19;20022;-67
2023/03/16 12:02:06;;;;;;;7.22;4.85;;;7.80;99.90;;;;;;7374396;19;20056;-67
2023/03/16 12:04:55;;;;;;;7.70;4.13;;;8.10;99.90;;;;;;7374507;19;20039;-67
2023/03/16 12:07:36;;;;;;;7.25;3.95;;;8.60;99.90;;;;;;7374535;19;20023;-67
2023/03/16 12:10:07;;;;;;;7.78;4.40;;;8.70;99.90;;;;;;7377442;19;20018;-67
2023/03/16 12:12:48;;;;;;;6.72;4.30;;;8.90;99.90;;;;;;7376938;19;20086;-67
2023/03/16 12:15:21;;;;;;;6.88;4.60;;;9.00;99.90;;;;;;7375745;19;20025;-67
2023/03/16 12:17:50;;;;;;;7.43;4.53;;;9.00;99.90;;;;;;7370561;19;20018;-67
2023/03/16 12:20:23;;;;;;;6.38;4.68;;;9.10;99.90;;;;;;7376517;19;20450;-67
2023/03/16 12:23:01;;;;;;;8.15;4.63;;;9.30;99.90;;;;;;7373443;19;20014;-68
2023/03/16 12:25:38;;;;;;;7.30;5.00;;;9.60;99.90;;;;;;7376603;19;20029;-68
2023/03/16 12:28:08;;;;;;;;;;;9.70;99.90;;;;;;7374855;19;20029;-67
2023/03/16 12:30:41;;;;;;;6.90;4.57;;;9.50;99.90;;;;;;7364978;19;19923;-67
2023/03/16 12:33:35;;;;;;;7.82;3.83;;;9.50;99.90;;;;;;7375139;19;20025;-67
2023/03/16 12:36:16;;;;;;;8.38;4.88;;;9.40;99.90;;;;;;7373324;19;20026;-67
2023/03/16 12:39:08;;;;;;;6.13;4.07;;;9.30;99.90;;;;;;7374802;19;20026;-67
2023/03/16 12:42:09;;;;;;;6.07;3.90;;;9.30;99.90;;;;;;7374929;19;20540;-66
2023/03/16 12:45:02;;;;;;;6.10;4.55;;;9.30;99.90;;;;;;7362398;19;20018;-67
2023/03/16 12:47:41;;;;;;;6.05;4.38;;;9.30;99.90;;;;;;7356691;19;20628;-67
2023/03/16 12:50:11;;;;;;;7.97;4.57;;;9.30;99.90;;;;;;7365691;19;20028;-67
2023/03/16 12:52:43;;;;;;;5.63;4.15;;;9.20;99.90;;;;;;7374894;19;20029;-66
2023/03/16 12:55:42;;;;;;;9.52;4.57;;;9.20;99.90;;;;;;7372138;19;20034;-66
2023/03/16 12:58:11;;;;;;;6.07;3.85;;;9.20;99.90;;;;;;7369861;19;20840;-67
2023/03/16 13:00:39;;;;;;;5.35;3.85;;;9.10;99.90;;;;;;7372953;19;20577;-66
2023/03/16 13:03:15;;;;;;;6.00;4.10;;;9.10;99.90;;;;;;7374837;19;20649;-66
2023/03/16 13:05:49;;;;;;;5.82;4.07;;;9.10;99.90;;;;;;7375841;19;20074;-66
2023/03/16 13:08:18;;;;;;;8.32;4.32;;;9.10;99.90;;;;;;7376020;19;20014;-66
2023/03/16 13:11:05;;;;;;;6.70;4.00;;;9.10;99.90;;;;;;7372195;19;21619;-66
2023/03/16 13:13:33;;;;;;;9.20;4.57;;;9.10;99.90;;;;;;7370521;19;20018;-66
2023/03/16 13:16:09;;;;;;;6.40;4.40;;;9.20;99.90;;;;;;7357321;19;20062;-66
2023/03/16 13:18:40;;;;;;;6.15;4.40;;;9.20;99.90;;;;;;7359996;19;20031;-67
2023/03/16 13:21:20;;;;;;;6.38;3.83;;;9.30;99.90;;;;;;7361341;19;20093;-67
2023/03/16 13:24:00;;;;;;;7.10;4.55;;;9.40;99.90;;;;;;7362227;19;20019;-66
2023/03/16 13:26:36;;;;;;;10.30;4.07;;;9.60;99.90;;;;;;7359732;19;20029;-67
2023/03/16 13:29:30;;;;;;;7.13;3.88;;;9.90;99.90;;;;;;7355360;19;20022;-66